createdAt,value
2019-01-02T00:00:52.906Z,4.20
2019-01-02T00:01:57.178Z,4.10
2019-01-02T00:03:01.446Z,4.10
2019-01-02T00:04:06.078Z,4.10
2019-01-02T00:05:10.358Z,4.10
2019-01-02T00:06:14.689Z,4.00
2019-01-02T00:07:19.246Z,4.00
2019-01-02T00:08:23.509Z,4.00
2019-01-02T00:09:27.779Z,4.00
2019-01-02T00:10:32.126Z,4.00
2019-01-02T00:11:36.393Z,4.00
2019-01-02T00:12:40.677Z,4.00
2019-01-02T00:13:45.213Z,3.90
2019-01-02T00:14:49.484Z,3.90
2019-01-02T00:15:53.750Z,3.90
2019-01-02T00:16:58.398Z,3.90
2019-01-02T00:18:02.675Z,3.90
2019-01-02T00:19:06.954Z,4.00
2019-01-02T00:20:12.689Z,4.00
2019-01-02T00:21:16.966Z,4.00
2019-01-02T00:22:21.229Z,4.10
2019-01-02T00:23:25.766Z,4.10
2019-01-02T00:24:30.029Z,4.20
2019-01-02T00:25:34.302Z,4.20
2019-01-02T00:26:38.955Z,4.30
2019-01-02T00:27:43.226Z,4.30
2019-01-02T00:28:47.483Z,4.40
2019-01-02T00:29:52.022Z,4.40
2019-01-02T00:30:56.290Z,4.40
2019-01-02T00:32:00.550Z,4.50
2019-01-02T00:33:05.273Z,4.40
2019-01-02T00:34:09.539Z,4.50
2019-01-02T00:35:13.810Z,4.50
2019-01-02T00:36:18.358Z,4.50
2019-01-02T00:37:22.634Z,4.50
2019-01-02T00:38:26.910Z,4.50
2019-01-02T00:39:31.449Z,4.40
2019-01-02T00:40:35.721Z,4.40
2019-01-02T00:41:39.990Z,4.30
2019-01-02T00:42:44.543Z,4.30
2019-01-02T00:43:48.810Z,4.20
2019-01-02T00:44:53.073Z,4.20
2019-01-02T00:45:57.727Z,4.20
2019-01-02T00:47:02.006Z,4.10
2019-01-02T00:48:06.283Z,4.10
2019-01-02T00:49:10.911Z,4.10
2019-01-02T00:50:15.273Z,4.00
2019-01-02T00:51:19.529Z,4.00
2019-01-02T00:52:23.967Z,3.90
2019-01-02T00:53:28.252Z,3.90
2019-01-02T00:54:32.794Z,3.80
2019-01-02T00:55:37.070Z,3.80
2019-01-02T00:56:41.339Z,3.80
2019-01-02T00:57:45.878Z,3.80
2019-01-02T00:58:50.150Z,3.70
2019-01-02T00:59:54.409Z,3.70
2019-01-02T01:00:59.041Z,3.60
2019-01-02T01:02:03.306Z,3.60
2019-01-02T01:03:07.569Z,3.60
2019-01-02T01:04:12.282Z,3.60
2019-01-02T01:05:16.546Z,3.60
2019-01-02T01:06:21.263Z,3.60
2019-01-02T01:07:25.534Z,3.50
2019-01-02T01:08:29.810Z,3.50
2019-01-02T01:09:34.537Z,3.50
2019-01-02T01:10:38.861Z,3.50
2019-01-02T01:11:43.131Z,3.40
2019-01-02T01:12:47.850Z,3.40
2019-01-02T01:13:52.226Z,3.40
2019-01-02T01:14:56.497Z,3.40
2019-01-02T01:16:01.126Z,3.40
2019-01-02T01:17:05.389Z,3.40
2019-01-02T01:18:09.669Z,3.40
2019-01-02T01:19:14.229Z,3.40
2019-01-02T01:20:20.086Z,3.40
2019-01-02T01:21:24.342Z,3.40
2019-01-02T01:22:28.890Z,3.40
2019-01-02T01:23:33.243Z,3.40
2019-01-02T01:24:37.509Z,3.40
2019-01-02T01:25:42.130Z,3.40
2019-01-02T01:26:46.458Z,3.40
2019-01-02T01:27:50.718Z,3.40
2019-01-02T01:28:55.363Z,3.40
2019-01-02T01:29:59.622Z,3.40
2019-01-02T01:31:03.894Z,3.40
2019-01-02T01:32:08.155Z,3.40
2019-01-02T01:33:12.791Z,3.30
2019-01-02T01:34:17.138Z,3.30
2019-01-02T01:35:21.407Z,3.30
2019-01-02T01:36:26.044Z,3.30
2019-01-02T01:37:30.312Z,3.30
2019-01-02T01:38:35.084Z,3.30
2019-01-02T01:39:39.354Z,3.30
2019-01-02T01:40:43.998Z,3.20
2019-01-02T01:41:48.257Z,3.30
2019-01-02T01:42:52.543Z,3.30
2019-01-02T01:43:57.203Z,3.30
2019-01-02T01:45:01.463Z,3.20
2019-01-02T01:46:05.724Z,3.20
2019-01-02T01:47:10.270Z,3.20
2019-01-02T01:48:14.538Z,3.20
2019-01-02T01:49:18.818Z,3.20
2019-01-02T01:50:23.323Z,3.10
2019-01-02T01:51:27.598Z,3.10
2019-01-02T01:52:31.854Z,3.10
2019-01-02T01:53:36.114Z,3.10
2019-01-02T01:54:40.778Z,3.10
2019-01-02T01:55:45.157Z,3.10
2019-01-02T01:56:49.422Z,3.10
2019-01-02T01:57:53.871Z,3.10
2019-01-02T01:58:58.142Z,3.10
2019-01-02T02:00:02.485Z,3.10
2019-01-02T02:01:07.118Z,3.10
2019-01-02T02:02:11.459Z,3.10
2019-01-02T02:03:15.788Z,3.10
2019-01-02T02:04:20.142Z,3.10
2019-01-02T02:05:24.786Z,3.10
2019-01-02T02:06:29.053Z,3.00
2019-01-02T02:07:33.318Z,3.00
2019-01-02T02:08:37.854Z,3.00
2019-01-02T02:09:42.122Z,3.10
2019-01-02T02:10:46.381Z,3.10
2019-01-02T02:11:51.055Z,3.00
2019-01-02T02:12:55.334Z,3.00
2019-01-02T02:13:59.618Z,3.00
2019-01-02T02:15:04.062Z,3.10
2019-01-02T02:16:08.602Z,3.00
2019-01-02T02:17:12.865Z,3.00
2019-01-02T02:18:17.131Z,3.00
2019-01-02T02:19:21.686Z,3.00
2019-01-02T02:20:25.971Z,3.00
2019-01-02T02:21:30.302Z,3.00
2019-01-02T02:22:34.942Z,3.00
2019-01-02T02:23:39.201Z,3.00
2019-01-02T02:24:43.483Z,2.90
2019-01-02T02:25:48.089Z,3.00
2019-01-02T02:26:52.339Z,2.90
2019-01-02T02:27:56.587Z,2.90
2019-01-02T02:29:00.817Z,2.90
2019-01-02T02:30:06.071Z,2.90
2019-01-02T02:31:10.379Z,2.90
2019-01-02T02:32:14.894Z,2.90
2019-01-02T02:33:19.195Z,3.00
2019-01-02T02:34:23.861Z,3.00
2019-01-02T02:35:28.282Z,2.90
2019-01-02T02:36:32.801Z,3.00
2019-01-02T02:37:37.325Z,2.90
2019-01-02T02:38:41.562Z,2.90
2019-01-02T02:39:46.181Z,3.00
2019-01-02T02:40:50.805Z,2.90
2019-01-02T02:41:55.050Z,3.00
2019-01-02T02:42:59.581Z,3.00
2019-01-02T02:44:04.375Z,3.00
2019-01-02T02:45:10.291Z,3.00
2019-01-02T02:46:14.906Z,3.00
2019-01-02T02:47:19.146Z,3.00
2019-01-02T02:48:23.566Z,3.00
2019-01-02T02:49:28.191Z,3.00
2019-01-02T02:50:32.450Z,3.00
2019-01-02T02:51:37.057Z,3.00
2019-01-02T02:52:41.682Z,2.90
2019-01-02T02:53:45.924Z,2.90
2019-01-02T02:54:50.470Z,2.90
2019-01-02T02:55:54.723Z,2.90
2019-01-02T02:56:59.251Z,2.90
2019-01-02T02:58:03.773Z,2.90
2019-01-02T02:59:08.017Z,2.80
2019-01-02T03:00:13.794Z,2.90
2019-01-02T03:01:18.048Z,2.90
2019-01-02T03:02:22.365Z,2.80
2019-01-02T03:03:26.613Z,2.80
2019-01-02T03:04:31.139Z,2.80
2019-01-02T03:05:35.690Z,2.80
2019-01-02T03:06:39.941Z,2.80
2019-01-02T03:07:44.479Z,2.80
2019-01-02T03:08:49.107Z,2.80
2019-01-02T03:09:53.351Z,2.80
2019-01-02T03:10:57.786Z,2.80
2019-01-02T03:12:02.317Z,2.80
2019-01-02T03:13:06.545Z,2.80
2019-01-02T03:14:11.070Z,2.80
2019-01-02T03:15:15.595Z,2.80
2019-01-02T03:16:19.875Z,2.80
2019-01-02T03:17:24.408Z,2.80
2019-01-02T03:18:29.026Z,2.80
2019-01-02T03:19:33.660Z,2.80
2019-01-02T03:20:38.170Z,2.80
2019-01-02T03:21:42.440Z,2.80
2019-01-02T03:22:46.954Z,2.80
2019-01-02T03:23:51.573Z,2.80
2019-01-02T03:24:55.821Z,2.80
2019-01-02T03:26:00.343Z,2.80
2019-01-02T03:27:05.043Z,2.80
2019-01-02T03:28:09.294Z,2.80
2019-01-02T03:29:14.010Z,2.80
2019-01-02T03:30:19.396Z,2.80
2019-01-02T03:31:24.029Z,2.80
2019-01-02T03:32:28.647Z,2.80
2019-01-02T03:33:33.167Z,2.80
2019-01-02T03:34:37.414Z,2.80
2019-01-02T03:35:41.662Z,2.80
2019-01-02T03:36:45.914Z,2.80
2019-01-02T03:37:50.145Z,2.80
2019-01-02T03:38:54.402Z,2.90
2019-01-02T03:39:58.651Z,2.90
2019-01-02T03:41:03.041Z,2.90
2019-01-02T03:42:07.309Z,2.90
2019-01-02T03:43:11.551Z,2.90
2019-01-02T03:44:15.783Z,2.90
2019-01-02T03:45:20.273Z,2.90
2019-01-02T03:46:24.533Z,2.90
2019-01-02T03:47:28.790Z,2.90
2019-01-02T03:48:35.162Z,2.80
2019-01-02T03:49:39.406Z,2.80
2019-01-02T03:50:43.650Z,2.80
2019-01-02T03:51:47.905Z,2.80
2019-01-02T03:52:52.146Z,2.80
2019-01-02T03:53:56.398Z,2.80
2019-01-02T03:55:00.718Z,2.80
2019-01-02T03:56:05.036Z,2.80
2019-01-02T03:57:09.369Z,2.80
2019-01-02T03:58:13.623Z,2.80
2019-01-02T03:59:17.865Z,2.80
2019-01-02T04:00:22.094Z,2.70
2019-01-02T04:01:26.351Z,2.70
2019-01-02T04:02:30.674Z,2.70
2019-01-02T04:03:34.926Z,2.70
2019-01-02T04:04:39.165Z,2.70
2019-01-02T04:05:43.479Z,2.70
2019-01-02T04:06:47.718Z,2.70
2019-01-02T04:07:58.741Z,2.70
2019-01-02T04:09:04.269Z,2.80
2019-01-02T04:10:11.323Z,2.80
2019-01-02T04:11:15.568Z,2.70
2019-01-02T04:12:19.817Z,2.80
2019-01-02T04:13:24.070Z,2.80
2019-01-02T04:14:28.303Z,2.80
2019-01-02T04:15:32.608Z,2.80
2019-01-02T04:16:36.856Z,2.80
2019-01-02T04:17:41.182Z,2.80
2019-01-02T04:18:45.435Z,2.80
2019-01-02T04:19:49.665Z,2.90
2019-01-02T04:20:53.908Z,2.80
2019-01-02T04:21:58.150Z,2.90
2019-01-02T04:23:02.413Z,2.90
2019-01-02T04:24:06.718Z,2.80
2019-01-02T04:25:10.975Z,2.80
2019-01-02T04:26:15.213Z,2.90
2019-01-02T04:27:19.458Z,2.90
2019-01-02T04:28:23.730Z,2.90
2019-01-02T04:29:27.966Z,2.90
2019-01-02T04:30:32.214Z,2.90
2019-01-02T04:31:36.449Z,2.90
2019-01-02T04:32:40.714Z,2.90
2019-01-02T04:33:44.954Z,2.90
2019-01-02T04:34:49.194Z,2.80
2019-01-02T04:35:53.450Z,2.80
2019-01-02T04:36:57.689Z,2.80
2019-01-02T04:38:01.941Z,2.80
2019-01-02T04:39:07.262Z,2.90
2019-01-02T04:40:12.668Z,2.90
2019-01-02T04:41:16.922Z,2.80
2019-01-02T04:42:21.166Z,2.80
2019-01-02T04:43:25.418Z,2.80
2019-01-02T04:44:29.658Z,2.90
2019-01-02T04:45:33.894Z,2.80
2019-01-02T04:46:38.149Z,2.80
2019-01-02T04:47:42.401Z,2.80
2019-01-02T04:48:46.658Z,2.80
2019-01-02T04:49:50.896Z,2.80
2019-01-02T04:50:55.129Z,2.80
2019-01-02T04:51:59.373Z,2.80
2019-01-02T04:53:03.630Z,2.80
2019-01-02T04:54:07.873Z,2.80
2019-01-02T04:55:12.191Z,2.80
2019-01-02T04:56:16.435Z,2.80
2019-01-02T04:57:20.698Z,2.80
2019-01-02T04:58:24.959Z,2.80
2019-01-02T04:59:29.190Z,2.80
2019-01-02T05:00:33.434Z,2.80
2019-01-02T05:01:37.681Z,2.80
2019-01-02T05:02:41.925Z,2.80
2019-01-02T05:03:46.173Z,2.80
2019-01-02T05:04:50.422Z,2.80
2019-01-02T05:05:54.678Z,2.80
2019-01-02T05:06:58.918Z,2.80
2019-01-02T05:08:03.183Z,2.80
2019-01-02T05:09:08.433Z,2.80
2019-01-02T05:10:13.938Z,2.80
2019-01-02T05:11:18.185Z,2.80
2019-01-02T05:12:22.434Z,2.90
2019-01-02T05:13:26.686Z,2.80
2019-01-02T05:14:30.998Z,2.90
2019-01-02T05:15:35.254Z,2.90
2019-01-02T05:16:39.487Z,2.90
2019-01-02T05:17:43.731Z,2.80
2019-01-02T05:18:47.965Z,2.90
2019-01-02T05:19:52.202Z,2.80
2019-01-02T05:20:56.442Z,2.90
2019-01-02T05:22:00.682Z,2.90
2019-01-02T05:23:04.923Z,2.90
2019-01-02T05:24:09.178Z,2.80
2019-01-02T05:25:13.419Z,2.80
2019-01-02T05:26:17.653Z,2.80
2019-01-02T05:27:21.897Z,2.80
2019-01-02T05:28:26.146Z,2.80
2019-01-02T05:29:30.393Z,2.80
2019-01-02T05:30:34.642Z,2.80
2019-01-02T05:31:38.886Z,2.80
2019-01-02T05:32:43.130Z,2.80
2019-01-02T05:33:47.386Z,2.70
2019-01-02T05:34:51.622Z,2.70
2019-01-02T05:35:55.860Z,2.70
2019-01-02T05:37:00.093Z,2.70
2019-01-02T05:38:04.335Z,2.70
2019-01-02T05:39:08.718Z,2.70
2019-01-02T05:40:18.510Z,2.70
2019-01-02T05:41:22.757Z,2.60
2019-01-02T05:42:27.067Z,2.60
2019-01-02T05:43:31.310Z,2.60
2019-01-02T05:44:35.561Z,2.60
2019-01-02T05:45:39.797Z,2.60
2019-01-02T05:46:44.030Z,2.60
2019-01-02T05:47:48.274Z,2.60
2019-01-02T05:48:52.517Z,2.60
2019-01-02T05:49:56.773Z,2.60
2019-01-02T05:51:01.097Z,2.60
2019-01-02T05:52:05.345Z,2.60
2019-01-02T05:53:09.591Z,2.60
2019-01-02T05:54:13.849Z,2.60
2019-01-02T05:55:18.165Z,2.60
2019-01-02T05:56:22.406Z,2.60
2019-01-02T05:57:26.649Z,2.60
2019-01-02T05:58:30.890Z,2.60
2019-01-02T05:59:35.146Z,2.60
2019-01-02T06:00:39.953Z,2.60
2019-01-02T06:01:44.214Z,2.60
2019-01-02T06:02:48.463Z,2.60
2019-01-02T06:03:52.861Z,2.60
2019-01-02T06:04:57.114Z,2.60
2019-01-02T06:06:01.349Z,2.60
2019-01-02T06:07:05.589Z,2.50
2019-01-02T06:08:09.847Z,2.50
2019-01-02T06:09:14.090Z,2.50
2019-01-02T06:10:18.353Z,2.50
2019-01-02T06:11:22.594Z,2.50
2019-01-02T06:12:26.839Z,2.50
2019-01-02T06:13:31.090Z,2.50
2019-01-02T06:14:35.326Z,2.50
2019-01-02T06:15:39.584Z,2.50
2019-01-02T06:16:43.814Z,2.50
2019-01-02T06:17:48.062Z,2.50
2019-01-02T06:18:52.311Z,2.50
2019-01-02T06:19:56.570Z,2.50
2019-01-02T06:21:00.806Z,2.50
2019-01-02T06:22:05.114Z,2.50
2019-01-02T06:23:09.368Z,2.50
2019-01-02T06:24:13.610Z,2.50
2019-01-02T06:25:17.869Z,2.50
2019-01-02T06:26:22.085Z,2.50
2019-01-02T06:27:26.342Z,2.50
2019-01-02T06:28:30.577Z,2.50
2019-01-02T06:29:34.821Z,2.50
2019-01-02T06:30:39.155Z,2.50
2019-01-02T06:31:43.402Z,2.50
2019-01-02T06:32:48.074Z,2.40
2019-01-02T06:33:52.310Z,2.50
2019-01-02T06:34:56.571Z,2.40
2019-01-02T06:36:00.859Z,2.40
2019-01-02T06:37:05.139Z,2.50
2019-01-02T06:38:09.374Z,2.50
2019-01-02T06:39:13.614Z,2.40
2019-01-02T06:40:17.874Z,2.40
2019-01-02T06:41:22.111Z,2.40
2019-01-02T06:42:26.357Z,2.40
2019-01-02T06:43:30.600Z,2.40
2019-01-02T06:44:34.838Z,2.40
2019-01-02T06:45:39.092Z,2.40
2019-01-02T06:46:43.330Z,2.40
2019-01-02T06:47:47.570Z,2.40
2019-01-02T06:48:51.819Z,2.40
2019-01-02T06:49:56.070Z,2.40
2019-01-02T06:51:00.341Z,2.40
2019-01-02T06:52:04.735Z,2.40
2019-01-02T06:53:08.982Z,2.40
2019-01-02T06:54:13.215Z,2.40
2019-01-02T06:55:17.458Z,2.30
2019-01-02T06:56:21.714Z,2.30
2019-01-02T06:57:25.953Z,2.30
2019-01-02T06:58:30.197Z,2.30
2019-01-02T06:59:34.453Z,2.20
2019-01-02T07:00:40.748Z,2.20
2019-01-02T07:01:44.992Z,2.20
2019-01-02T07:02:49.234Z,2.20
2019-01-02T07:03:53.476Z,2.10
2019-01-02T07:04:57.710Z,2.10
2019-01-02T07:06:02.002Z,2.10
2019-01-02T07:07:06.238Z,2.10
2019-01-02T07:08:10.498Z,2.00
2019-01-02T07:09:14.750Z,2.00
2019-01-02T07:10:19.241Z,2.00
2019-01-02T07:11:23.617Z,2.00
2019-01-02T07:12:27.857Z,2.00
2019-01-02T07:13:32.108Z,1.90
2019-01-02T07:14:36.403Z,1.90
2019-01-02T07:15:40.695Z,1.90
2019-01-02T07:16:44.949Z,1.90
2019-01-02T07:17:49.182Z,1.90
2019-01-02T07:18:53.447Z,1.90
2019-01-02T07:19:57.685Z,1.90
2019-01-02T07:21:01.942Z,1.90
2019-01-02T07:22:06.193Z,1.90
2019-01-02T07:23:10.426Z,1.90
2019-01-02T07:24:14.680Z,1.90
2019-01-02T07:25:18.918Z,1.90
2019-01-02T07:26:23.242Z,1.90
2019-01-02T07:27:27.486Z,2.00
2019-01-02T07:28:31.730Z,2.00
2019-01-02T07:29:35.973Z,2.00
2019-01-02T07:30:40.294Z,2.00
2019-01-02T07:31:44.537Z,2.00
2019-01-02T07:32:49.088Z,2.00
2019-01-02T07:34:06.557Z,2.00
2019-01-02T07:35:53.776Z,2.00
2019-01-02T07:37:22.025Z,2.00
2019-01-02T07:39:07.749Z,2.10
2019-01-02T07:41:02.125Z,2.10
2019-01-02T07:42:48.806Z,2.10
2019-01-02T07:44:23.847Z,2.10
2019-01-02T07:45:51.661Z,2.10
2019-01-02T07:47:15.201Z,2.20
2019-01-02T07:48:58.106Z,2.20
2019-01-02T07:50:30.898Z,2.20
2019-01-02T07:52:12.153Z,2.20
2019-01-02T07:53:40.863Z,2.20
2019-01-02T07:55:27.712Z,2.30
2019-01-02T07:56:46.705Z,2.30
2019-01-02T07:58:19.667Z,2.40
2019-01-02T07:59:49.525Z,2.40
2019-01-02T08:01:35.849Z,2.60
2019-01-02T08:03:24.215Z,2.70
2019-01-02T08:04:57.671Z,2.80
2019-01-02T08:06:49.298Z,3.10
2019-01-02T08:08:29.179Z,3.30
2019-01-02T08:10:21.146Z,3.50
2019-01-02T08:11:50.639Z,3.60
2019-01-02T08:13:23.295Z,3.80
2019-01-02T08:15:11.402Z,4.10
2019-01-02T08:16:48.270Z,4.50
2019-01-02T08:18:22.721Z,4.90
2019-01-02T08:19:50.036Z,5.20
2019-01-02T08:21:39.527Z,5.60
2019-01-02T08:23:13.220Z,5.80
2019-01-02T08:24:45.990Z,5.90
2019-01-02T08:26:03.350Z,6.10
2019-01-02T08:27:50.419Z,6.60
2019-01-02T08:29:17.535Z,7.10
2019-01-02T08:30:41.070Z,7.90
2019-01-02T08:32:32.575Z,8.60
2019-01-02T08:34:01.631Z,9.30
2019-01-02T08:35:54.727Z,10.20
2019-01-02T08:37:22.617Z,10.80
2019-01-02T08:38:46.874Z,11.60
2019-01-02T08:40:33.349Z,12.10
2019-01-02T08:42:02.026Z,12.60
2019-01-02T08:43:22.302Z,13.30
2019-01-02T08:44:49.690Z,13.90
2019-01-02T08:46:30.982Z,14.40
2019-01-02T08:48:04.426Z,14.90
2019-01-02T08:49:45.005Z,15.40
2019-01-02T08:51:35.309Z,16.00
2019-01-02T08:52:56.134Z,16.70
2019-01-02T08:54:36.898Z,17.10
2019-01-02T08:56:17.994Z,17.40
2019-01-02T08:58:03.551Z,17.80
2019-01-02T08:59:27.302Z,18.10
2019-01-02T09:01:30.926Z,18.30
2019-01-02T09:03:28.425Z,18.60
2019-01-02T09:05:01.045Z,18.90
2019-01-02T09:06:30.697Z,19.10
2019-01-02T09:08:27.386Z,19.40
2019-01-02T09:10:01.870Z,19.70
2019-01-02T09:11:54.879Z,20.00
2019-01-02T09:13:39.073Z,20.20
2019-01-02T09:15:00.323Z,20.60
2019-01-02T09:16:54.803Z,20.90
2019-01-02T09:18:36.862Z,21.10
2019-01-02T09:20:06.458Z,21.20
2019-01-02T09:21:48.096Z,21.30
2019-01-02T09:23:44.128Z,21.50
2019-01-02T09:25:15.966Z,21.60
2019-01-02T09:26:51.408Z,21.70
2019-01-02T09:28:23.775Z,21.80
2019-01-02T09:30:02.236Z,22.00
2019-01-02T09:31:39.374Z,22.10
2019-01-02T09:33:13.081Z,22.20
2019-01-02T09:35:13.503Z,22.30
2019-01-02T09:36:57.606Z,22.30
2019-01-02T09:38:33.471Z,22.30
2019-01-02T09:40:06.377Z,22.40
2019-01-02T09:41:44.838Z,22.40
2019-01-02T09:43:29.396Z,22.50
2019-01-02T09:44:57.166Z,22.60
2019-01-02T09:46:31.979Z,22.70
2019-01-02T09:48:09.207Z,22.70
2019-01-02T09:49:37.715Z,22.70
2019-01-02T09:51:17.802Z,22.70
2019-01-02T09:53:18.337Z,22.70
2019-01-02T09:55:08.601Z,22.60
2019-01-02T09:56:41.971Z,22.70
2019-01-02T09:58:26.691Z,22.80
2019-01-02T10:00:04.748Z,22.70
2019-01-02T10:01:44.868Z,22.80
2019-01-02T10:03:57.652Z,23.00
2019-01-02T10:05:27.030Z,23.00
2019-01-02T10:07:02.329Z,22.90
2019-01-02T10:08:53.202Z,22.70
2019-01-02T10:10:13.610Z,22.40
2019-01-02T10:11:35.930Z,22.20
2019-01-02T10:12:55.907Z,21.90
2019-01-02T10:14:30.414Z,21.70
2019-01-02T10:15:56.264Z,21.60
2019-01-02T10:17:23.762Z,21.60
2019-01-02T10:18:41.606Z,21.50
2019-01-02T10:20:21.513Z,21.40
2019-01-02T10:22:02.803Z,21.20
2019-01-02T10:23:46.451Z,21.10
2019-01-02T10:25:19.407Z,20.90
2019-01-02T10:27:02.491Z,20.80
2019-01-02T10:28:48.614Z,20.70
2019-01-02T10:30:29.251Z,20.50
2019-01-02T10:32:05.266Z,20.40
2019-01-02T10:34:08.947Z,20.30
2019-01-02T10:35:55.814Z,20.20
2019-01-02T10:37:25.683Z,19.80
2019-01-02T10:39:22.333Z,19.60
2019-01-02T10:40:56.818Z,19.40
2019-01-02T10:42:23.034Z,19.10
2019-01-02T10:43:53.626Z,19.00
2019-01-02T10:45:38.394Z,18.90
2019-01-02T10:47:07.453Z,18.70
2019-01-02T10:48:41.897Z,18.40
2019-01-02T10:50:09.798Z,18.20
2019-01-02T10:51:38.357Z,18.00
2019-01-02T10:53:07.807Z,17.80
2019-01-02T10:54:45.463Z,17.60
2019-01-02T10:56:05.619Z,17.50
2019-01-02T10:57:49.838Z,17.30
2019-01-02T10:59:29.502Z,17.20
2019-01-02T11:01:05.363Z,17.00
2019-01-02T11:03:06.142Z,16.80
2019-01-02T11:04:57.621Z,16.60
2019-01-02T11:06:35.255Z,16.30
2019-01-02T11:08:32.978Z,15.90
2019-01-02T11:10:12.364Z,15.60
2019-01-02T11:11:41.871Z,15.20
2019-01-02T11:13:16.227Z,14.90
2019-01-02T11:15:00.762Z,14.60
2019-01-02T11:16:40.570Z,14.40
2019-01-02T11:18:07.623Z,14.20
2019-01-02T11:19:57.260Z,13.90
2019-01-02T11:21:32.198Z,13.70
2019-01-02T11:23:06.129Z,13.40
2019-01-02T11:24:49.518Z,13.20
2019-01-02T11:26:32.536Z,12.90
2019-01-02T11:28:33.285Z,12.50
2019-01-02T11:30:13.951Z,12.20
2019-01-02T11:31:58.425Z,11.90
2019-01-02T11:33:35.754Z,11.60
2019-01-02T11:34:49.413Z,11.40
2019-01-02T11:36:08.575Z,11.20
2019-01-02T11:37:52.882Z,11.00
2019-01-02T11:39:30.749Z,10.90
2019-01-02T11:41:22.094Z,10.80
2019-01-02T11:42:45.112Z,10.60
2019-01-02T11:44:39.971Z,10.50
2019-01-02T11:45:44.287Z,10.30
2019-01-02T11:46:48.529Z,10.00
2019-01-02T11:47:52.766Z,9.90
2019-01-02T11:48:57.022Z,9.80
2019-01-02T11:50:01.255Z,9.60
2019-01-02T11:51:05.482Z,9.50
2019-01-02T11:52:09.717Z,9.40
2019-01-02T11:53:13.965Z,9.40
2019-01-02T11:54:18.226Z,9.30
2019-01-02T11:55:22.534Z,9.30
2019-01-02T11:56:26.765Z,9.30
2019-01-02T11:57:31.002Z,9.20
2019-01-02T11:58:35.246Z,9.20
2019-01-02T11:59:39.549Z,9.10
2019-01-02T12:00:43.787Z,9.10
2019-01-02T12:01:48.009Z,9.00
2019-01-02T12:02:52.256Z,9.00
2019-01-02T12:03:56.501Z,9.00
2019-01-02T12:05:00.801Z,9.00
2019-01-02T12:06:05.214Z,9.00
2019-01-02T12:07:09.471Z,9.00
2019-01-02T12:08:13.766Z,8.90
2019-01-02T12:09:18.011Z,8.90
2019-01-02T12:10:22.603Z,8.90
2019-01-02T12:11:26.829Z,8.80
2019-01-02T12:12:31.070Z,8.80
2019-01-02T12:13:35.304Z,8.70
2019-01-02T12:14:39.547Z,8.70
2019-01-02T12:15:43.779Z,8.70
2019-01-02T12:16:48.023Z,8.60
2019-01-02T12:17:52.254Z,8.50
2019-01-02T12:18:56.507Z,8.50
2019-01-02T12:20:00.885Z,8.40
2019-01-02T12:21:05.117Z,8.40
2019-01-02T12:22:09.360Z,8.40
2019-01-02T12:23:13.602Z,8.30
2019-01-02T12:24:17.849Z,8.20
2019-01-02T12:25:22.078Z,8.20
2019-01-02T12:26:26.321Z,8.20
2019-01-02T12:27:30.561Z,8.10
2019-01-02T12:28:34.941Z,8.10
2019-01-02T12:29:39.202Z,8.10
2019-01-02T12:30:43.442Z,8.10
2019-01-02T12:31:47.669Z,8.00
2019-01-02T12:32:51.912Z,7.90
2019-01-02T12:33:56.144Z,7.90
2019-01-02T12:35:00.522Z,7.80
2019-01-02T12:36:04.837Z,7.70
2019-01-02T12:37:09.074Z,7.60
2019-01-02T12:38:13.310Z,7.50
2019-01-02T12:39:17.636Z,7.50
2019-01-02T12:40:21.875Z,7.50
2019-01-02T12:41:26.109Z,7.50
2019-01-02T12:42:30.358Z,7.50
2019-01-02T12:43:34.593Z,7.40
2019-01-02T12:44:38.833Z,7.30
2019-01-02T12:45:43.070Z,7.30
2019-01-02T12:46:47.310Z,7.30
2019-01-02T12:47:51.549Z,7.30
2019-01-02T12:48:55.785Z,7.30
2019-01-02T12:50:00.050Z,7.30
2019-01-02T12:51:04.430Z,7.30
2019-01-02T12:52:08.670Z,7.20
2019-01-02T12:53:12.902Z,7.20
2019-01-02T12:54:17.135Z,7.20
2019-01-02T12:55:21.398Z,7.20
2019-01-02T12:56:25.626Z,7.20
2019-01-02T12:57:29.873Z,7.20
2019-01-02T12:58:34.196Z,7.20
2019-01-02T12:59:38.426Z,7.20
2019-01-02T13:00:48.943Z,7.20
2019-01-02T13:02:09.470Z,7.10
2019-01-02T13:03:38.619Z,7.00
2019-01-02T13:05:07.882Z,6.90
2019-01-02T13:07:05.712Z,6.70
2019-01-02T13:08:34.645Z,6.60
2019-01-02T13:10:02.758Z,6.50
2019-01-02T13:11:47.932Z,6.40
2019-01-02T13:13:16.591Z,6.30
2019-01-02T13:14:49.486Z,6.20
2019-01-02T13:16:49.058Z,6.20
2019-01-02T13:18:21.333Z,6.10
2019-01-02T13:20:15.667Z,6.10
2019-01-02T13:21:29.470Z,6.00
2019-01-02T13:22:57.211Z,6.00
2019-01-02T13:24:30.531Z,5.90
2019-01-02T13:26:02.586Z,5.80
2019-01-02T13:27:33.198Z,5.80
2019-01-02T13:29:27.756Z,5.70
2019-01-02T13:30:57.961Z,5.70
2019-01-02T13:32:38.600Z,5.60
2019-01-02T13:34:08.946Z,5.60
2019-01-02T13:35:35.516Z,5.50
2019-01-02T13:37:04.070Z,5.40
2019-01-02T13:38:25.839Z,5.40
2019-01-02T13:40:16.154Z,5.40
2019-01-02T13:41:34.370Z,5.30
2019-01-02T13:42:53.337Z,5.30
2019-01-02T13:44:09.621Z,5.20
2019-01-02T13:45:48.545Z,5.20
2019-01-02T13:47:33.566Z,5.10
2019-01-02T13:49:10.379Z,5.10
2019-01-02T13:50:54.808Z,5.10
2019-01-02T13:51:59.059Z,5.00
2019-01-02T13:53:05.866Z,5.00
2019-01-02T13:54:10.119Z,5.00
2019-01-02T13:55:17.411Z,5.00
2019-01-02T13:56:23.462Z,4.90
2019-01-02T13:57:27.697Z,4.90
2019-01-02T13:58:31.943Z,4.90
2019-01-02T13:59:36.179Z,4.90
2019-01-02T14:00:40.414Z,4.90
2019-01-02T14:01:44.658Z,4.90
2019-01-02T14:02:48.894Z,4.80
2019-01-02T14:03:56.154Z,4.80
2019-01-02T14:05:00.427Z,4.80
2019-01-02T14:06:04.783Z,4.80
2019-01-02T14:07:09.041Z,4.70
2019-01-02T14:08:13.292Z,4.70
2019-01-02T14:09:17.526Z,4.70
2019-01-02T14:10:21.762Z,4.70
2019-01-02T14:11:26.070Z,4.60
2019-01-02T14:12:30.318Z,4.60
2019-01-02T14:13:34.549Z,4.60
2019-01-02T14:14:38.790Z,4.60
2019-01-02T14:15:43.095Z,4.60
2019-01-02T14:16:47.342Z,4.50
2019-01-02T14:17:51.589Z,4.50
2019-01-02T14:18:55.828Z,4.50
2019-01-02T14:20:00.085Z,4.40
2019-01-02T14:21:04.359Z,4.40
2019-01-02T14:22:08.626Z,4.40
2019-01-02T14:23:12.874Z,4.40
2019-01-02T14:24:17.102Z,4.40
2019-01-02T14:25:21.339Z,4.30
2019-01-02T14:26:25.575Z,4.30
2019-01-02T14:27:29.826Z,4.30
2019-01-02T14:28:34.069Z,4.20
2019-01-02T14:29:38.313Z,4.20
2019-01-02T14:30:42.564Z,4.20
2019-01-02T14:31:46.785Z,4.10
2019-01-02T14:32:51.034Z,4.10
2019-01-02T14:33:55.351Z,4.10
2019-01-02T14:34:59.598Z,4.10
2019-01-02T14:36:03.850Z,4.00
2019-01-02T14:37:08.082Z,4.00
2019-01-02T14:38:12.340Z,4.00
2019-01-02T14:39:16.567Z,3.90
2019-01-02T14:40:20.806Z,3.90
2019-01-02T14:41:25.050Z,3.90
2019-01-02T14:42:29.294Z,3.80
2019-01-02T14:43:33.539Z,3.80
2019-01-02T14:44:37.778Z,3.80
2019-01-02T14:45:42.021Z,3.80
2019-01-02T14:46:50.407Z,3.70
2019-01-02T14:47:52.217Z,3.70
2019-01-02T14:48:56.458Z,3.70
2019-01-02T14:50:00.696Z,3.60
2019-01-02T14:51:05.022Z,3.60
2019-01-02T14:52:09.278Z,3.60
2019-01-02T14:53:13.583Z,3.60
2019-01-02T14:54:17.829Z,3.60
2019-01-02T14:55:22.075Z,3.50
2019-01-02T14:56:26.321Z,3.50
2019-01-02T14:57:30.566Z,3.50
2019-01-02T14:58:34.820Z,3.50
2019-01-02T14:59:39.059Z,3.40
2019-01-02T15:00:43.339Z,3.40
2019-01-02T15:01:47.584Z,3.40
2019-01-02T15:02:51.827Z,3.40
2019-01-02T15:03:56.070Z,3.30
2019-01-02T15:05:00.327Z,3.30
2019-01-02T15:06:04.567Z,3.30
2019-01-02T15:07:08.811Z,3.10
2019-01-02T15:08:13.058Z,3.20
2019-01-02T15:09:17.310Z,3.20
2019-01-02T15:10:21.566Z,3.10
2019-01-02T15:11:25.806Z,3.10
2019-01-02T15:12:30.063Z,3.10
2019-01-02T15:13:34.305Z,3.10
2019-01-02T15:14:38.566Z,3.10
2019-01-02T15:15:42.800Z,3.00
2019-01-02T15:16:47.042Z,3.00
2019-01-02T15:17:51.355Z,3.00
2019-01-02T15:18:55.825Z,3.00
2019-01-02T15:20:00.183Z,3.00
2019-01-02T15:21:04.715Z,2.90
2019-01-02T15:22:08.953Z,2.90
2019-01-02T15:23:13.198Z,2.90
2019-01-02T15:24:17.451Z,2.90
2019-01-02T15:25:21.694Z,2.80
2019-01-02T15:26:25.933Z,2.80
2019-01-02T15:27:30.173Z,2.80
2019-01-02T15:28:34.415Z,2.80
2019-01-02T15:29:38.662Z,2.90
2019-01-02T15:30:42.909Z,3.00
2019-01-02T15:31:47.145Z,3.00
2019-01-02T15:32:51.407Z,3.10
2019-01-02T15:33:55.670Z,3.10
2019-01-02T15:35:00.243Z,3.10
2019-01-02T15:36:04.487Z,3.10
2019-01-02T15:37:08.802Z,3.10
2019-01-02T15:38:13.054Z,3.10
2019-01-02T15:39:17.430Z,3.00
2019-01-02T15:40:21.686Z,3.00
2019-01-02T15:41:26.010Z,2.90
2019-01-02T15:42:30.250Z,2.90
2019-01-02T15:43:34.490Z,2.90
2019-01-02T15:44:38.749Z,2.80
2019-01-02T15:45:42.990Z,2.80
2019-01-02T15:46:47.229Z,2.80
2019-01-02T15:47:51.482Z,2.70
2019-01-02T15:48:55.738Z,2.70
2019-01-02T15:50:00.223Z,2.60
2019-01-02T15:51:04.727Z,2.60
2019-01-02T15:52:09.307Z,2.50
2019-01-02T15:53:13.600Z,2.50
2019-01-02T15:54:17.847Z,2.40
2019-01-02T15:55:22.101Z,2.40